createdAt,value
2019-05-11T00:04:42.300Z,77.39
2019-05-11T00:10:33.213Z,76.61
2019-05-11T00:13:41.041Z,76.57
2019-05-11T00:16:29.825Z,76.74
2019-05-11T00:19:18.673Z,77.46
2019-05-11T00:22:07.428Z,77.19
2019-05-11T00:24:56.231Z,76.83
2019-05-11T00:27:45.020Z,76.87
2019-05-11T00:30:33.817Z,77.03
2019-05-11T00:33:22.619Z,76.94
2019-05-11T00:36:11.501Z,76.40
2019-05-11T00:39:00.279Z,76.75
2019-05-11T00:41:49.091Z,77.10
2019-05-11T00:44:37.878Z,77.40
2019-05-11T00:47:26.683Z,76.99
2019-05-11T00:50:15.550Z,77.33
2019-05-11T00:53:04.334Z,78.79
2019-05-11T00:55:53.135Z,77.90
2019-05-11T00:58:41.944Z,77.80
2019-05-11T01:01:30.781Z,77.91
2019-05-11T01:04:19.784Z,78.25
2019-05-11T01:07:08.552Z,78.27
2019-05-11T01:09:50.431Z,78.64
2019-05-11T01:12:39.217Z,78.87
2019-05-11T01:15:28.018Z,78.58
2019-05-11T01:18:16.794Z,78.74
2019-05-11T01:21:05.604Z,78.58
2019-05-11T01:23:54.382Z,78.89
2019-05-11T01:26:43.179Z,78.73
2019-05-11T01:29:31.968Z,78.44
2019-05-11T01:32:20.769Z,78.21
2019-05-11T01:35:09.979Z,78.43
2019-05-11T01:37:58.799Z,78.21
2019-05-11T01:40:58.146Z,77.45
2019-05-11T01:43:38.423Z,77.91
2019-05-11T01:46:27.367Z,78.25
2019-05-11T01:49:16.269Z,78.51
2019-05-11T01:52:05.158Z,79.32
2019-05-11T01:54:54.309Z,78.79
2019-05-11T01:57:43.152Z,78.49
2019-05-11T02:00:31.982Z,78.24
2019-05-11T02:03:20.931Z,78.39
2019-05-11T02:06:09.695Z,78.42
2019-05-11T02:08:58.682Z,78.28
2019-05-11T02:11:40.074Z,78.38
2019-05-11T02:14:28.875Z,78.45
2019-05-11T02:17:17.678Z,78.60
2019-05-11T02:20:06.531Z,78.43
2019-05-11T02:25:49.963Z,78.78
2019-05-11T02:28:38.705Z,78.59
2019-05-11T02:31:27.492Z,78.81
2019-05-11T02:34:16.298Z,78.62
2019-05-11T02:37:05.082Z,78.74
2019-05-11T02:39:53.889Z,78.74
2019-05-11T02:42:42.689Z,78.44
2019-05-11T02:45:50.823Z,79.63
2019-05-11T02:48:39.610Z,79.31
2019-05-11T02:51:49.350Z,78.67
2019-05-11T02:58:07.366Z,79.94
2019-05-11T03:00:56.124Z,80.21
2019-05-11T03:03:44.948Z,80.14
2019-05-11T03:06:33.708Z,80.26
2019-05-11T03:09:22.510Z,79.90
2019-05-11T03:12:04.254Z,79.11
2019-05-11T03:14:53.052Z,78.65
2019-05-11T03:17:41.840Z,78.25
2019-05-11T03:20:30.641Z,79.91
2019-05-11T03:23:19.442Z,80.32
2019-05-11T03:26:08.233Z,79.79
2019-05-11T03:28:57.031Z,79.63
2019-05-11T03:31:45.824Z,79.79
2019-05-11T03:34:34.639Z,79.55
2019-05-11T03:37:15.813Z,79.37
2019-05-11T03:40:25.527Z,79.76
2019-05-11T03:43:14.313Z,80.40
2019-05-11T03:46:03.106Z,80.96
2019-05-11T03:48:51.885Z,80.56
2019-05-11T03:51:40.690Z,80.47
2019-05-11T03:54:29.472Z,80.16
2019-05-11T03:57:18.278Z,79.88
2019-05-11T04:03:35.736Z,80.00
2019-05-11T04:06:24.525Z,80.10
2019-05-11T04:09:13.324Z,80.25
2019-05-11T04:11:53.086Z,79.99
2019-05-11T04:14:41.893Z,80.03
2019-05-11T04:17:30.679Z,79.76
2019-05-11T04:20:19.492Z,79.37
2019-05-11T04:23:08.298Z,79.45
2019-05-11T04:25:57.083Z,79.24
2019-05-11T04:28:45.886Z,79.01
2019-05-11T04:34:44.115Z,79.67
2019-05-11T04:37:32.941Z,80.15
2019-05-11T04:40:21.776Z,80.25
2019-05-11T04:43:10.644Z,80.69
2019-05-11T04:45:59.550Z,80.64
2019-05-11T04:48:48.489Z,80.50
2019-05-11T04:51:37.361Z,80.59
2019-05-11T04:54:26.236Z,80.48
2019-05-11T04:57:15.112Z,80.66
2019-05-11T05:03:19.653Z,80.81
2019-05-11T05:06:22.173Z,80.40
2019-05-11T05:09:03.702Z,80.62
2019-05-11T05:11:49.706Z,80.25
2019-05-11T05:14:31.037Z,80.11
2019-05-11T05:17:19.847Z,79.80
2019-05-11T05:20:27.830Z,79.21
2019-05-11T05:23:16.614Z,79.11
2019-05-11T05:26:05.751Z,78.59
2019-05-11T05:28:54.503Z,79.53
2019-05-11T05:31:43.394Z,80.30
2019-05-11T05:34:32.189Z,80.30
2019-05-11T05:37:20.974Z,80.58
2019-05-11T05:40:30.691Z,80.57
2019-05-11T05:43:27.749Z,79.77
2019-05-11T05:46:10.056Z,79.57
2019-05-11T05:48:58.836Z,79.04
2019-05-11T05:51:47.707Z,79.40
2019-05-11T05:54:36.503Z,79.44
2019-05-11T05:57:25.294Z,80.30
2019-05-11T06:00:14.446Z,80.32
2019-05-11T06:03:03.245Z,80.76
2019-05-11T06:05:52.097Z,81.21
2019-05-11T06:08:43.129Z,81.79
2019-05-11T06:11:31.439Z,82.06
2019-05-11T06:14:20.249Z,81.81
2019-05-11T06:17:09.024Z,81.58
2019-05-11T06:19:57.822Z,81.59
2019-05-11T06:22:46.606Z,80.98
2019-05-11T06:25:35.409Z,81.50
2019-05-11T06:28:24.223Z,81.70
2019-05-11T06:31:13.012Z,81.33
2019-05-11T06:34:01.820Z,81.99
2019-05-11T06:36:50.609Z,81.91
2019-05-11T06:39:39.413Z,82.19
2019-05-11T06:42:28.218Z,81.49
2019-05-11T06:45:17.062Z,81.05
2019-05-11T06:48:05.869Z,80.63
2019-05-11T06:50:54.756Z,80.42
2019-05-11T06:53:43.530Z,80.12
2019-05-11T06:56:32.335Z,80.20
2019-05-11T06:59:21.113Z,80.86
2019-05-11T07:02:09.919Z,80.52
2019-05-11T07:04:58.723Z,80.34
2019-05-11T07:07:48.103Z,80.02
2019-05-11T07:10:30.645Z,79.89
2019-05-11T07:13:19.462Z,79.84
2019-05-11T07:16:08.244Z,80.92
2019-05-11T07:18:57.057Z,80.04
2019-05-11T07:21:45.834Z,79.68
2019-05-11T07:24:34.638Z,79.35
2019-05-11T07:27:23.434Z,78.90
2019-05-11T07:30:12.315Z,78.75
2019-05-11T07:33:01.236Z,78.38
2019-05-11T07:35:50.012Z,78.16
2019-05-11T07:38:38.798Z,78.82
2019-05-11T07:41:47.846Z,79.93
2019-05-11T07:44:40.981Z,79.65
2019-05-11T07:47:27.999Z,79.19
2019-05-11T07:50:18.594Z,79.28
2019-05-11T07:53:08.243Z,78.98
2019-05-11T07:55:58.175Z,79.17
2019-05-11T07:58:48.140Z,78.39
2019-05-11T08:01:38.725Z,78.54
2019-05-11T08:04:28.735Z,78.90
2019-05-11T08:07:18.589Z,78.65
2019-05-11T08:09:59.790Z,78.94
2019-05-11T08:12:48.595Z,78.81
2019-05-11T08:15:38.286Z,79.50
2019-05-11T08:18:28.380Z,78.30
2019-05-11T08:21:18.407Z,77.50
2019-05-11T08:24:09.180Z,77.09
2019-05-11T08:26:58.375Z,77.14
2019-05-11T08:29:48.886Z,76.88
2019-05-11T08:32:38.839Z,77.30
2019-05-11T08:35:31.181Z,77.21
2019-05-11T08:38:18.657Z,76.41
2019-05-11T08:41:08.217Z,77.83
2019-05-11T08:43:58.667Z,77.24
2019-05-11T08:46:48.503Z,76.35
2019-05-11T08:49:38.115Z,75.79
2019-05-11T08:52:28.223Z,74.95
2019-05-11T08:55:19.133Z,75.25
2019-05-11T08:58:08.969Z,74.90
2019-05-11T09:00:58.415Z,74.65
2019-05-11T09:03:48.408Z,74.14
2019-05-11T09:06:37.759Z,74.02
2019-05-11T09:09:28.718Z,74.26
2019-05-11T09:12:11.552Z,74.39
2019-05-11T09:15:00.366Z,74.10
2019-05-11T09:17:49.167Z,73.62
2019-05-11T09:20:57.698Z,74.13
2019-05-11T09:23:48.638Z,74.25
2019-05-11T09:26:39.031Z,74.47
2019-05-11T09:29:28.794Z,74.34
2019-05-11T09:31:58.531Z,74.64
2019-05-11T09:34:49.017Z,74.81
2019-05-11T09:37:38.245Z,75.06
2019-05-11T09:40:28.545Z,75.25
2019-05-11T09:43:18.855Z,75.07
2019-05-11T09:46:08.359Z,73.77
2019-05-11T09:48:58.976Z,73.50
2019-05-11T09:51:48.744Z,74.58
2019-05-11T09:54:38.202Z,74.91
2019-05-11T09:57:28.092Z,74.70
2019-05-11T10:03:45.362Z,76.03
2019-05-11T10:09:43.541Z,75.40
2019-05-11T10:12:25.426Z,75.23
2019-05-11T10:18:42.721Z,74.46
2019-05-11T10:21:31.534Z,75.74
2019-05-11T10:24:20.361Z,74.17
2019-05-11T10:27:09.225Z,74.35
2019-05-11T10:29:58.973Z,75.44
2019-05-11T10:35:48.433Z,76.03
2019-05-11T10:38:38.391Z,76.16
2019-05-11T10:41:28.420Z,76.20
2019-05-11T10:44:18.823Z,76.28
2019-05-11T10:47:08.356Z,76.04
2019-05-11T10:49:58.745Z,76.99
2019-05-11T10:52:48.375Z,77.38
2019-05-11T10:55:38.854Z,77.49
2019-05-11T10:58:28.671Z,77.23
2019-05-11T11:01:18.312Z,76.64
2019-05-11T11:04:08.171Z,76.09
2019-05-11T11:06:59.064Z,76.58
2019-05-11T11:09:49.050Z,76.06
2019-05-11T11:12:31.337Z,75.64
2019-05-11T11:18:38.105Z,75.41
2019-05-11T11:21:27.922Z,75.69
2019-05-11T11:24:17.925Z,75.95
2019-05-11T11:27:10.230Z,76.86
2019-05-11T11:29:58.417Z,75.60
2019-05-11T11:32:48.260Z,76.30
2019-05-11T11:35:38.548Z,77.12
2019-05-11T11:38:28.775Z,77.37
2019-05-11T11:41:18.918Z,77.09
2019-05-11T11:44:08.081Z,77.82
2019-05-11T11:46:58.978Z,78.08
2019-05-11T11:49:48.704Z,78.94
2019-05-11T11:52:38.315Z,78.53
2019-05-11T11:55:29.036Z,78.31
2019-05-11T11:58:23.495Z,77.97
2019-05-11T12:01:09.136Z,77.97
2019-05-11T12:03:58.223Z,78.27
2019-05-11T12:06:48.993Z,78.03
2019-05-11T12:09:39.025Z,77.15
2019-05-11T12:12:21.005Z,77.37
2019-05-11T12:15:09.868Z,77.08
2019-05-11T12:17:58.931Z,77.57
2019-05-11T12:20:49.194Z,78.13
2019-05-11T12:23:38.291Z,78.16
2019-05-11T12:26:28.505Z,78.05
2019-05-11T12:29:18.807Z,78.74
2019-05-11T12:38:19.010Z,78.09
2019-05-11T12:41:08.786Z,78.55
2019-05-11T12:43:58.442Z,78.73
2019-05-11T12:47:19.210Z,79.62
2019-05-11T12:49:58.595Z,78.99
2019-05-11T12:52:47.745Z,78.42
2019-05-11T12:55:38.157Z,78.28
2019-05-11T12:58:28.105Z,78.16
2019-05-11T13:01:18.706Z,78.55
2019-05-11T13:04:08.944Z,78.49
2019-05-11T13:06:58.766Z,78.52
2019-05-11T13:09:48.518Z,78.67
2019-05-11T13:12:38.628Z,78.56
2019-05-11T13:15:21.838Z,77.79
2019-05-11T13:18:10.677Z,78.06
2019-05-11T13:20:59.509Z,78.44
2019-05-11T13:23:48.938Z,77.71
2019-05-11T13:26:38.901Z,77.21
2019-05-11T13:29:28.671Z,77.75
2019-05-11T13:32:18.778Z,77.80
2019-05-11T13:35:09.308Z,78.02
2019-05-11T13:37:59.723Z,77.48
2019-05-11T13:40:48.943Z,77.87
2019-05-11T13:43:39.136Z,77.77
2019-05-11T13:46:28.385Z,77.54
2019-05-11T13:49:11.531Z,77.58
2019-05-11T13:52:00.353Z,77.43
2019-05-11T13:54:49.140Z,78.66
2019-05-11T14:00:38.085Z,79.42
2019-05-11T14:03:27.823Z,79.24
2019-05-11T14:06:18.377Z,79.08
2019-05-11T14:12:09.241Z,78.94
2019-05-11T14:14:38.730Z,77.51
2019-05-11T14:17:31.195Z,78.36
2019-05-11T14:20:18.909Z,78.49
2019-05-11T14:23:08.575Z,77.91
2019-05-11T14:25:57.677Z,77.72
2019-05-11T14:28:48.204Z,77.95
2019-05-11T14:31:38.849Z,77.34
2019-05-11T14:34:29.230Z,77.24
2019-05-11T14:37:18.212Z,76.27
2019-05-11T14:40:08.965Z,76.62
2019-05-11T14:42:58.210Z,76.31
2019-05-11T14:45:48.737Z,76.66
2019-05-11T14:48:39.110Z,75.44
2019-05-11T14:54:38.174Z,76.80
2019-05-11T14:57:27.932Z,77.43
2019-05-11T15:00:18.614Z,77.85
2019-05-11T15:03:08.764Z,78.06
2019-05-11T15:05:58.238Z,78.42
2019-05-11T15:08:48.137Z,77.66
2019-05-11T15:11:38.851Z,77.04
2019-05-11T15:14:22.174Z,77.17
2019-05-11T15:17:10.585Z,77.00
2019-05-11T15:19:59.396Z,78.10
2019-05-11T15:22:28.885Z,77.78
2019-05-11T15:25:38.560Z,78.00
2019-05-11T15:28:28.467Z,77.34
2019-05-11T15:31:22.085Z,76.28
2019-05-11T15:34:18.777Z,77.96
2019-05-11T15:37:09.113Z,77.36
2019-05-11T15:42:58.511Z,76.44
2019-05-11T15:45:48.693Z,77.61
2019-05-11T15:48:31.937Z,77.91
2019-05-11T15:51:20.712Z,78.07
2019-05-11T15:54:09.577Z,78.41
2019-05-11T15:56:59.990Z,78.70
2019-05-11T15:59:48.875Z,77.76
2019-05-11T16:02:37.838Z,77.49
2019-05-11T16:05:28.663Z,77.13
2019-05-11T16:08:19.045Z,77.56
2019-05-11T16:11:09.265Z,77.57
2019-05-11T16:13:58.619Z,77.15
2019-05-11T16:16:48.669Z,76.93
2019-05-11T16:19:38.038Z,76.57
2019-05-11T16:22:28.100Z,76.33
2019-05-11T16:25:19.206Z,77.13
2019-05-11T16:28:07.778Z,76.76
2019-05-11T16:30:58.454Z,75.59
2019-05-11T16:33:48.698Z,76.78
2019-05-11T16:36:38.995Z,76.84
2019-05-11T16:39:28.127Z,76.91
2019-05-11T16:42:16.873Z,77.50
2019-05-11T16:48:14.599Z,76.76
2019-05-11T16:51:03.446Z,76.38
2019-05-11T16:53:52.325Z,76.25
2019-05-11T16:56:41.120Z,76.30
2019-05-11T16:59:30.478Z,76.18
2019-05-11T17:02:19.282Z,75.52
2019-05-11T17:05:33.462Z,75.62
2019-05-11T17:08:18.712Z,75.45
2019-05-11T17:11:01.412Z,75.86
2019-05-11T17:13:50.218Z,75.39
2019-05-11T17:16:39.030Z,75.89
2019-05-11T17:19:42.190Z,75.10
2019-05-11T17:22:18.970Z,75.38
2019-05-11T17:25:09.743Z,75.45
2019-05-11T17:27:58.852Z,74.52
2019-05-11T17:30:49.268Z,74.73
2019-05-11T17:33:58.151Z,75.18
2019-05-11T17:36:47.607Z,75.39
2019-05-11T17:39:38.451Z,75.23
2019-05-11T17:42:26.960Z,75.18
2019-05-11T17:45:15.799Z,74.64
2019-05-11T17:48:04.598Z,74.52
2019-05-11T17:50:46.675Z,74.19
2019-05-11T17:53:37.656Z,74.65
2019-05-11T17:56:27.967Z,74.28
2019-05-11T17:59:16.528Z,73.79
2019-05-11T18:02:05.315Z,72.53
2019-05-11T18:04:54.121Z,71.04
2019-05-11T18:10:50.673Z,71.10
2019-05-11T18:13:31.907Z,71.01
2019-05-11T18:16:20.708Z,71.39
2019-05-11T18:22:17.899Z,72.13
2019-05-11T18:28:37.809Z,71.54
2019-05-11T18:34:55.122Z,72.17
2019-05-11T18:37:43.913Z,72.59
2019-05-11T18:40:32.748Z,73.01
2019-05-11T18:43:21.548Z,73.56
2019-05-11T18:46:10.361Z,72.69
2019-05-11T18:48:59.141Z,73.69
2019-05-11T18:51:48.458Z,73.36
2019-05-11T18:54:38.598Z,74.67
2019-05-11T18:57:27.960Z,74.21
2019-05-11T19:00:38.214Z,74.33
2019-05-11T19:03:28.282Z,75.18
2019-05-11T19:06:18.346Z,75.62
2019-05-11T19:12:03.591Z,75.44
2019-05-11T19:14:45.138Z,75.30
2019-05-11T19:17:53.039Z,75.23
2019-05-11T19:20:45.631Z,75.25
2019-05-11T19:23:51.417Z,75.54
2019-05-11T19:26:40.250Z,75.57
2019-05-11T19:32:23.782Z,75.94
2019-05-11T19:35:12.568Z,76.17
2019-05-11T19:38:01.373Z,77.21
2019-05-11T19:40:50.198Z,78.28
2019-05-11T19:43:39.072Z,78.87
2019-05-11T19:46:28.142Z,78.47
2019-05-11T19:49:19.027Z,78.28
2019-05-11T19:52:08.938Z,78.02
2019-05-11T19:54:57.844Z,77.72
2019-05-11T19:57:48.260Z,77.86
2019-05-11T20:00:38.025Z,79.11
2019-05-11T20:03:28.677Z,78.66
2019-05-11T20:06:18.731Z,79.42
2019-05-11T20:09:08.778Z,78.95
2019-05-11T20:11:58.331Z,78.72
2019-05-11T20:14:39.844Z,78.51
2019-05-11T20:17:28.906Z,78.66
2019-05-11T20:20:19.181Z,79.02
2019-05-11T20:23:07.999Z,78.56
2019-05-11T20:25:58.207Z,78.25
2019-05-11T20:28:48.271Z,78.40
2019-05-11T20:31:37.887Z,78.08
2019-05-11T20:34:28.765Z,78.09
2019-05-11T20:37:18.232Z,78.08
2019-05-11T20:40:09.223Z,77.41
2019-05-11T20:42:58.850Z,77.72
2019-05-11T20:45:48.849Z,77.91
2019-05-11T20:48:38.243Z,78.02
2019-05-11T20:51:36.273Z,78.24
2019-05-11T20:54:18.701Z,78.12
2019-05-11T20:57:08.953Z,78.34
2019-05-11T20:59:58.088Z,78.32
2019-05-11T21:02:48.699Z,78.07
2019-05-11T21:05:37.439Z,77.67
2019-05-11T21:08:28.269Z,77.78
2019-05-11T21:11:18.061Z,77.35
2019-05-11T21:14:28.618Z,77.78
2019-05-11T21:17:09.884Z,77.77
2019-05-11T21:19:58.685Z,78.01
2019-05-11T21:26:15.987Z,77.38
2019-05-11T21:29:08.410Z,76.88
2019-05-11T21:31:58.992Z,76.41
2019-05-11T21:34:48.881Z,76.31
2019-05-11T21:37:38.998Z,75.82
2019-05-11T21:40:31.126Z,75.92
2019-05-11T21:43:19.073Z,75.89
2019-05-11T21:46:08.298Z,75.83
2019-05-11T21:48:58.420Z,76.25
2019-05-11T21:54:41.592Z,75.54
2019-05-11T21:57:30.401Z,75.69
2019-05-11T22:03:48.023Z,75.60
2019-05-11T22:06:39.007Z,75.72
2019-05-11T22:09:28.702Z,76.44
2019-05-11T22:12:18.747Z,76.41
2019-05-11T22:15:00.594Z,76.23
2019-05-11T22:17:49.391Z,76.35
2019-05-11T22:20:41.008Z,75.97
2019-05-11T22:23:28.697Z,75.87
2019-05-11T22:26:17.999Z,75.57
2019-05-11T22:29:08.018Z,76.10
2019-05-11T22:31:58.117Z,75.86
2019-05-11T22:34:47.934Z,75.72
2019-05-11T22:37:38.517Z,75.89
2019-05-11T22:40:28.400Z,75.93
2019-05-11T22:43:18.936Z,75.95
2019-05-11T22:46:07.720Z,75.62
2019-05-11T22:48:58.266Z,76.70
2019-05-11T22:51:47.065Z,75.81
2019-05-11T22:54:38.185Z,75.81
2019-05-11T22:57:27.362Z,75.99
2019-05-11T23:03:31.626Z,75.09
2019-05-11T23:06:20.436Z,75.57
2019-05-11T23:09:09.284Z,75.46
2019-05-11T23:12:01.010Z,74.98
2019-05-11T23:17:59.940Z,75.26
2019-05-11T23:20:48.483Z,75.32
2019-05-11T23:23:37.293Z,75.14
2019-05-11T23:26:28.113Z,75.33
2019-05-11T23:29:16.604Z,75.77
2019-05-11T23:32:05.400Z,76.05
2019-05-11T23:34:54.183Z,76.76
2019-05-11T23:37:43.068Z,76.75
2019-05-11T23:40:31.920Z,77.09
2019-05-11T23:43:20.723Z,76.88
2019-05-11T23:46:09.528Z,77.17
2019-05-11T23:48:58.323Z,77.07
2019-05-11T23:51:47.806Z,77.20
2019-05-11T23:54:38.275Z,77.13
2019-05-11T23:57:28.165Z,76.98
